Birgitta — ZM2930 — position and weather

sailwx.info

Track history (hours):
 
Tides and Currents Weather Stations Pressure Air Temp Water Temp Dewpoint Dewpoint Depression Visibility Wind Speed Wind Dir Waves Ship Positions

Birgitta

Last reported at 2017-Sep-28 11:48 UTC. Time now 2017-Dec-17 19:51 UTC.
Position N 37°40' E 023°34'.
Warning: this ship's position is months out of date.

Length 17 m.

Type: Sailing vessel. MMSI: 512003400.

Date/timePositionNaut miles runAvg speedWind from/ knotsBaromVisibWave heightAir tempDewpointWater temp
2017-Sep-28 11:48N 37°40' E 023°34'2 7.1
2017-Sep-28 11:29N 37°41' E 023°36'3 6.7
2017-Sep-28 11:00N 37°43' E 023°39'3 6.3
2017-Sep-28 10:30N 37°44' E 023°43'3 6.9
2017-Sep-28 10:00N 37°47' E 023°44'3 6.6
2017-Sep-28 09:30N 37°50' E 023°42'4 7.1
2017-Sep-28 09:00N 37°54' E 023°40'3 5.6
2017-Sep-28 08:30N 37°56' E 023°39'0 0.1
2017-Sep-28 07:55N 37°56' E 023°39'0 0.0
2017-Sep-27 08:26N 37°56' E 023°39'0 0.7
2017-Sep-27 08:00N 37°56' E 023°39'3 6.2
2017-Sep-27 07:30N 37°54' E 023°36'6 7.1
2017-Sep-27 06:39N 37°50' E 023°30'1 7.2
2017-Sep-27 06:30N 37°49' E 023°30'4 7.3
2017-Sep-27 06:00N 37°47' E 023°26'4 0.3
2017-Sep-26 14:59N 37°43' E 023°26'  
2017-Sep-22 00:46N 37°56' E 023°39'0 0.0
2017-Sep-22 00:28N 37°56' E 023°39'0 0.0
2017-Sep-21 23:58N 37°56' E 023°39'0 0.0
2017-Sep-21 23:28N 37°56' E 023°39'0 0.0
2017-Sep-21 22:58N 37°56' E 023°39'0 0.0
2017-Sep-21 22:28N 37°56' E 023°39'0 0.0
2017-Sep-21 21:58N 37°56' E 023°39'0 0.0
2017-Sep-21 21:28N 37°56' E 023°39'0 0.0
2017-Sep-21 20:58N 37°56' E 023°39'0 0.0
2017-Sep-21 20:28N 37°56' E 023°39'0 0.0
2017-Sep-21 19:58N 37°56' E 023°39'0 0.0
2017-Sep-21 19:28N 37°56' E 023°39'0 0.0
2017-Sep-21 18:58N 37°56' E 023°39'0 0.0
2017-Sep-21 18:28N 37°56' E 023°39'0 0.0
2017-Sep-21 17:58N 37°56' E 023°39'0 0.0
2017-Sep-21 17:28N 37°56' E 023°39'0 0.0
2017-Sep-21 16:58N 37°56' E 023°39'0 0.0
2017-Sep-21 16:28N 37°56' E 023°39'0 0.0
2017-Sep-21 09:32N 37°56' E 023°39'0 0.1
2017-Sep-21 09:29N 37°56' E 023°39'0 0.5
2017-Sep-21 09:00N 37°56' E 023°39'2 4.7
2017-Sep-21 08:30N 37°54' E 023°37'4 8.8
2017-Sep-21 08:00N 37°51' E 023°33'4 8.8
2017-Sep-21 07:30N 37°48' E 023°29'4 8.4
2017-Sep-21 07:00N 37°45' E 023°25'18 1.1
2017-Sep-20 14:48N 37°28' E 023°31'  
Track history (hours):
 
Tides and Currents Weather Stations Pressure Air Temp Water Temp Dewpoint Dewpoint Depression Visibility Wind Speed Wind Dir Waves Ship Positions

Birgitta

Last reported at 2017-Sep-28 11:48 UTC. Time now 2017-Dec-17 19:51 UTC.
Position N 37°40' E 023°34'.
Warning: this ship's position is months out of date.

Length 17 m.

Type: Sailing vessel. MMSI: 512003400.

Date/timePositionNaut miles runAvg speedWind from/ knotsBaromVisibWave heightAir tempDewpointWater temp
2017-Sep-28 11:48N 37°40' E 023°34'2 7.1
2017-Sep-28 11:29N 37°41' E 023°36'3 6.7
2017-Sep-28 11:00N 37°43' E 023°39'3 6.3
2017-Sep-28 10:30N 37°44' E 023°43'3 6.9
2017-Sep-28 10:00N 37°47' E 023°44'3 6.6
2017-Sep-28 09:30N 37°50' E 023°42'4 7.1
2017-Sep-28 09:00N 37°54' E 023°40'3 5.6
2017-Sep-28 08:30N 37°56' E 023°39'0 0.1
2017-Sep-28 07:55N 37°56' E 023°39'0 0.0
2017-Sep-27 08:26N 37°56' E 023°39'0 0.7
2017-Sep-27 08:00N 37°56' E 023°39'3 6.2
2017-Sep-27 07:30N 37°54' E 023°36'6 7.1
2017-Sep-27 06:39N 37°50' E 023°30'1 7.2
2017-Sep-27 06:30N 37°49' E 023°30'4 7.3
2017-Sep-27 06:00N 37°47' E 023°26'4 0.3
2017-Sep-26 14:59N 37°43' E 023°26'  
2017-Sep-22 00:46N 37°56' E 023°39'0 0.0
2017-Sep-22 00:28N 37°56' E 023°39'0 0.0
2017-Sep-21 23:58N 37°56' E 023°39'0 0.0
2017-Sep-21 23:28N 37°56' E 023°39'0 0.0
2017-Sep-21 22:58N 37°56' E 023°39'0 0.0
2017-Sep-21 22:28N 37°56' E 023°39'0 0.0
2017-Sep-21 21:58N 37°56' E 023°39'0 0.0
2017-Sep-21 21:28N 37°56' E 023°39'0 0.0
2017-Sep-21 20:58N 37°56' E 023°39'0 0.0
2017-Sep-21 20:28N 37°56' E 023°39'0 0.0
2017-Sep-21 19:58N 37°56' E 023°39'0 0.0
2017-Sep-21 19:28N 37°56' E 023°39'0 0.0
2017-Sep-21 18:58N 37°56' E 023°39'0 0.0
2017-Sep-21 18:28N 37°56' E 023°39'0 0.0
2017-Sep-21 17:58N 37°56' E 023°39'0 0.0
2017-Sep-21 17:28N 37°56' E 023°39'0 0.0
2017-Sep-21 16:58N 37°56' E 023°39'0 0.0
2017-Sep-21 16:28N 37°56' E 023°39'0 0.0
2017-Sep-21 09:32N 37°56' E 023°39'0 0.1
2017-Sep-21 09:29N 37°56' E 023°39'0 0.5
2017-Sep-21 09:00N 37°56' E 023°39'2 4.7
2017-Sep-21 08:30N 37°54' E 023°37'4 8.8
2017-Sep-21 08:00N 37°51' E 023°33'4 8.8
2017-Sep-21 07:30N 37°48' E 023°29'4 8.4
2017-Sep-21 07:00N 37°45' E 023°25'18 1.1
2017-Sep-20 14:48N 37°28' E 023°31'  

Dump ship's entire track history